Time;durP1;ratioP1;P1;durP2;ratioP2;P2;SDS_P1;SDS_P2;PMS_P1;PMS_P2;Temp;Humidity;BMP_temperature;BMP_pressure;BME280_temperature;BME280_humidity;BME280_pressure;Samples;Min_cycle;Max_cycle;Signal;HPM_P1;HPM_P2
2023/09/30 00:00:11;;;;;;;23.57;10.50;;;;;;;;;;5057617;28;20479;-77
2023/09/30 00:02:38;;;;;;;21.10;11.37;;;;;;;;;;5082184;28;20812;-77
2023/09/30 00:05:06;;;;;;;26.00;11.90;;;;;;;;;;5077491;28;20491;-77
2023/09/30 00:07:33;;;;;;;23.00;12.43;;;;;;;;;;5085234;28;20450;-76
2023/09/30 00:10:00;;;;;;;26.47;12.53;;;;;;;;;;5065618;28;20976;-76
2023/09/30 00:12:27;;;;;;;25.90;11.87;;;;;;;;;;5067098;28;20457;-76
2023/09/30 00:14:56;;;;;;;23.00;10.60;;;;;;;;;;5082696;28;20832;-76
2023/09/30 00:17:23;;;;;;;27.00;13.07;;;;;;;;;;5064372;28;20908;-76
2023/09/30 00:19:50;;;;;;;24.37;12.00;;;;;;;;;;5077972;28;20443;-76
2023/09/30 00:22:17;;;;;;;23.67;11.03;;;;;;;;;;5066730;28;20821;-77
2023/09/30 00:24:44;;;;;;;25.43;12.43;;;;;;;;;;5065917;28;20447;-76
2023/09/30 00:27:11;;;;;;;27.53;12.73;;;;;;;;;;5084713;28;20487;-76
2023/09/30 00:29:38;;;;;;;30.33;11.70;;;;;;;;;;5076916;28;20812;-76
2023/09/30 00:32:07;;;;;;;24.83;12.70;;;;;;;;;;5068869;28;20481;-77
2023/09/30 00:34:35;;;;;;;23.93;11.87;;;;;;;;;;5069377;28;20465;-77
2023/09/30 00:37:02;;;;;;;26.00;11.77;;;;;;;;;;5084274;28;20467;-76
2023/09/30 00:39:30;;;;;;;23.93;10.10;;;;;;;;;;5086215;28;20451;-76
2023/09/30 00:41:58;;;;;;;25.97;12.27;;;;;;;;;;5070490;28;20991;-76
2023/09/30 00:44:25;;;;;;;19.93;10.70;;;;;;;;;;5067581;28;20456;-76
2023/09/30 00:46:53;;;;;;;24.63;11.50;;;;;;;;;;5066555;28;20499;-76
2023/09/30 00:49:21;;;;;;;31.30;11.40;;;;;;;;;;5084601;28;20945;-77
2023/09/30 00:51:49;;;;;;;24.30;11.30;;;;;;;;;;5073725;28;20488;-76
2023/09/30 00:54:17;;;;;;;21.37;10.33;;;;;;;;;;5071722;28;20794;-76
2023/09/30 00:56:45;;;;;;;23.27;11.10;;;;;;;;;;5068002;28;20448;-76
2023/09/30 00:59:12;;;;;;;20.77;9.93;;;;;;;;;;5084526;28;20523;-76
2023/09/30 01:01:39;;;;;;;26.53;10.70;;;;;;;;;;5084300;28;20474;-76
2023/09/30 01:04:07;;;;;;;22.20;9.73;;;;;;;;;;5078419;28;20826;-76
2023/09/30 01:06:35;;;;;;;23.70;10.27;;;;;;;;;;5080423;28;20569;-76
2023/09/30 01:09:03;;;;;;;22.90;10.40;;;;;;;;;;5080343;28;20473;-76
2023/09/30 01:11:30;;;;;;;20.30;10.17;;;;;;;;;;5096969;28;20473;-76
2023/09/30 01:13:57;;;;;;;21.90;9.30;;;;;;;;;;5083583;28;20473;-77
2023/09/30 01:16:24;;;;;;;21.50;9.73;;;;;;;;;;5071258;28;20546;-76
2023/09/30 01:18:51;;;;;;;22.77;9.80;;;;;;;;;;5084841;28;20452;-76
2023/09/30 01:21:19;;;;;;;23.27;9.20;;;;;;;;;;5068508;28;20476;-76
2023/09/30 01:23:48;;;;;;;21.23;9.23;;;;;;;;;;5086087;28;20471;-76
2023/09/30 01:26:15;;;;;;;29.03;11.30;;;;;;;;;;5074783;28;20494;-76
2023/09/30 01:28:42;;;;;;;15.47;9.20;;;;;;;;;;5085254;28;20443;-76
2023/09/30 01:31:09;;;;;;;24.93;10.20;;;;;;;;;;5075609;28;20471;-76
2023/09/30 01:33:36;;;;;;;18.23;10.27;;;;;;;;;;5068056;28;20460;-76
2023/09/30 01:36:04;;;;;;;23.07;10.70;;;;;;;;;;5072936;28;20473;-76
2023/09/30 01:38:31;;;;;;;27.80;10.10;;;;;;;;;;5056265;28;20539;-75
2023/09/30 01:40:59;;;;;;;26.57;11.17;;;;;;;;;;5083794;28;20472;-77
2023/09/30 01:43:26;;;;;;;22.07;9.80;;;;;;;;;;5069578;28;20458;-76
2023/09/30 01:45:54;;;;;;;18.57;9.40;;;;;;;;;;5076857;28;20851;-76
2023/09/30 01:48:21;;;;;;;21.20;8.70;;;;;;;;;;5087814;28;20453;-76
2023/09/30 01:50:48;;;;;;;22.77;11.17;;;;;;;;;;5068468;28;20484;-76
2023/09/30 01:53:15;;;;;;;23.30;8.90;;;;;;;;;;5075226;28;20454;-76
2023/09/30 01:55:44;;;;;;;22.33;10.07;;;;;;;;;;5095863;28;20449;-76
2023/09/30 01:58:12;;;;;;;25.03;8.90;;;;;;;;;;5067715;28;20466;-77
2023/09/30 02:00:39;;;;;;;20.90;9.00;;;;;;;;;;5067514;28;20478;-76
2023/09/30 02:03:07;;;;;;;18.63;7.87;;;;;;;;;;5088644;28;20461;-76
2023/09/30 02:05:34;;;;;;;27.40;10.30;;;;;;;;;;5063142;28;20459;-76
2023/09/30 02:08:05;;;;;;;21.80;8.87;;;;;;;;;;5055965;28;20839;-76
2023/09/30 02:10:33;;;;;;;16.63;8.30;;;;;;;;;;5062895;28;21064;-77
2023/09/30 02:13:00;;;;;;;17.60;8.80;;;;;;;;;;5070257;28;20466;-77
2023/09/30 02:15:29;;;;;;;14.57;7.30;;;;;;;;;;5071809;28;20946;-76
2023/09/30 02:17:56;;;;;;;17.47;7.60;;;;;;;;;;5075665;28;20456;-77
2023/09/30 02:20:25;;;;;;;27.00;9.80;;;;;;;;;;5066999;28;20476;-77
2023/09/30 02:22:54;;;;;;;18.20;7.67;;;;;;;;;;5085776;28;20471;-77
2023/09/30 02:25:21;;;;;;;19.87;9.30;;;;;;;;;;5087218;28;20477;-76
2023/09/30 02:27:49;;;;;;;14.40;7.47;;;;;;;;;;5069211;28;20922;-76
2023/09/30 02:30:17;;;;;;;15.80;6.93;;;;;;;;;;5080422;28;20474;-76
2023/09/30 02:32:46;;;;;;;13.77;6.63;;;;;;;;;;5086368;28;20953;-76
2023/09/30 02:35:15;;;;;;;17.70;7.10;;;;;;;;;;5088221;28;20482;-77
2023/09/30 02:37:42;;;;;;;18.83;8.20;;;;;;;;;;5077889;28;20452;-76
2023/09/30 02:40:10;;;;;;;18.57;8.60;;;;;;;;;;5075895;28;20467;-76
2023/09/30 02:42:37;;;;;;;20.23;7.90;;;;;;;;;;5058780;28;20464;-76
2023/09/30 02:45:05;;;;;;;19.17;8.27;;;;;;;;;;5070712;28;20968;-76
2023/09/30 02:47:32;;;;;;;21.57;8.27;;;;;;;;;;5079179;28;20502;-76
2023/09/30 02:50:01;;;;;;;16.30;6.90;;;;;;;;;;5083201;28;21011;-77
2023/09/30 02:52:28;;;;;;;28.33;7.93;;;;;;;;;;5083260;28;20973;-77
2023/09/30 02:54:57;;;;;;;16.87;7.87;;;;;;;;;;5085750;28;20516;-76
2023/09/30 02:57:24;;;;;;;19.50;8.60;;;;;;;;;;5080304;28;20448;-76
2023/09/30 02:59:52;;;;;;;15.60;7.63;;;;;;;;;;5084860;28;20547;-76
2023/09/30 03:02:21;;;;;;;20.27;8.30;;;;;;;;;;5087438;28;20496;-76
2023/09/30 03:04:50;;;;;;;21.60;9.13;;;;;;;;;;5069921;28;20456;-76
2023/09/30 03:07:19;;;;;;;11.83;7.30;;;;;;;;;;5089959;28;20863;-76
2023/09/30 03:09:46;;;;;;;19.40;8.33;;;;;;;;;;5086349;28;20457;-76
2023/09/30 03:12:14;;;;;;;26.80;8.03;;;;;;;;;;5069844;28;20567;-76
2023/09/30 03:14:42;;;;;;;15.70;7.17;;;;;;;;;;5075734;28;20815;-76
2023/09/30 03:17:11;;;;;;;17.47;9.10;;;;;;;;;;5073739;28;20480;-76
2023/09/30 03:19:38;;;;;;;17.93;8.70;;;;;;;;;;5087644;28;20885;-76
2023/09/30 03:22:10;;;;;;;15.60;7.57;;;;;;;;;;5083968;28;20478;-77
2023/09/30 03:24:39;;;;;;;12.03;6.20;;;;;;;;;;5084260;28;20451;-77
2023/09/30 03:27:07;;;;;;;16.07;7.10;;;;;;;;;;5073875;28;21009;-77
2023/09/30 03:29:34;;;;;;;17.37;7.60;;;;;;;;;;5084170;28;20458;-76
2023/09/30 03:32:01;;;;;;;16.33;6.77;;;;;;;;;;5087310;28;20858;-76
2023/09/30 03:34:29;;;;;;;24.30;7.33;;;;;;;;;;5080359;28;20463;-76
2023/09/30 03:36:58;;;;;;;16.73;6.83;;;;;;;;;;5075946;28;20940;-76
2023/09/30 03:39:27;;;;;;;16.17;7.67;;;;;;;;;;5090227;28;20542;-76
2023/09/30 03:41:55;;;;;;;21.67;8.70;;;;;;;;;;5083202;28;20475;-77
2023/09/30 03:44:23;;;;;;;21.57;8.67;;;;;;;;;;5070090;28;20506;-77
2023/09/30 03:46:51;;;;;;;16.33;7.80;;;;;;;;;;5084119;28;20537;-76
2023/09/30 03:49:19;;;;;;;16.27;7.80;;;;;;;;;;5079226;28;20457;-77
2023/09/30 03:51:47;;;;;;;17.90;7.57;;;;;;;;;;5080683;28;20477;-77
2023/09/30 03:54:14;;;;;;;19.07;8.10;;;;;;;;;;5068607;28;20455;-77
2023/09/30 03:56:41;;;;;;;13.80;8.13;;;;;;;;;;5084494;28;20452;-77
2023/09/30 03:59:09;;;;;;;16.47;7.43;;;;;;;;;;5083532;28;20448;-77
2023/09/30 04:01:39;;;;;;;18.03;7.73;;;;;;;;;;5083250;28;20479;-76
2023/09/30 04:04:09;;;;;;;18.03;6.93;;;;;;;;;;5079269;28;20931;-77
2023/09/30 04:06:38;;;;;;;14.37;7.70;;;;;;;;;;5071087;28;20494;-77
2023/09/30 04:09:09;;;;;;;17.07;8.40;;;;;;;;;;5074599;28;20487;-77
2023/09/30 04:11:36;;;;;;;17.30;7.10;;;;;;;;;;5082659;28;20524;-77
2023/09/30 04:14:03;;;;;;;17.33;7.20;;;;;;;;;;5070241;28;20455;-77
2023/09/30 04:16:32;;;;;;;18.00;8.30;;;;;;;;;;5086562;28;20956;-76
2023/09/30 04:19:00;;;;;;;14.40;7.47;;;;;;;;;;5076135;28;20452;-77
2023/09/30 04:21:28;;;;;;;15.03;6.90;;;;;;;;;;5090640;28;20855;-76
2023/09/30 04:23:55;;;;;;;17.70;7.20;;;;;;;;;;5079251;28;20459;-77
2023/09/30 04:26:23;;;;;;;19.97;7.40;;;;;;;;;;5087434;28;20528;-77
2023/09/30 04:28:51;;;;;;;14.87;6.87;;;;;;;;;;5075483;28;20455;-76
2023/09/30 04:31:18;;;;;;;16.07;6.63;;;;;;;;;;5081471;28;20476;-77
2023/09/30 04:33:47;;;;;;;15.40;6.80;;;;;;;;;;5074223;28;20451;-76
2023/09/30 04:36:14;;;;;;;17.63;7.60;;;;;;;;;;5079913;28;20525;-76
2023/09/30 04:38:41;;;;;;;14.80;7.70;;;;;;;;;;5081434;28;20443;-77
2023/09/30 04:41:08;;;;;;;15.77;7.70;;;;;;;;;;5080808;28;20981;-76
2023/09/30 04:43:37;;;;;;;22.37;9.93;;;;;;;;;;5073521;28;20457;-76
2023/09/30 04:46:07;;;;;;;16.13;7.67;;;;;;;;;;5056590;28;20835;-76
2023/09/30 04:48:34;;;;;;;16.87;8.63;;;;;;;;;;5072865;28;20500;-77
2023/09/30 04:51:04;;;;;;;17.23;7.30;;;;;;;;;;5072820;28;20868;-76
2023/09/30 04:53:33;;;;;;;16.73;7.77;;;;;;;;;;5080245;28;20462;-76
2023/09/30 04:56:01;;;;;;;15.87;8.10;;;;;;;;;;5085134;28;20493;-76
2023/09/30 04:58:29;;;;;;;18.60;8.37;;;;;;;;;;5078133;28;21008;-76
2023/09/30 05:00:56;;;;;;;15.27;8.27;;;;;;;;;;5081129;28;20995;-76
2023/09/30 05:03:24;;;;;;;19.13;7.50;;;;;;;;;;5072919;28;20436;-77
2023/09/30 05:05:53;;;;;;;15.70;7.10;;;;;;;;;;5064629;28;20465;-77
2023/09/30 05:08:21;;;;;;;21.73;7.90;;;;;;;;;;5081139;28;20494;-76
2023/09/30 05:10:49;;;;;;;16.20;7.00;;;;;;;;;;5063374;28;20486;-76
2023/09/30 05:13:17;;;;;;;18.70;7.83;;;;;;;;;;5085806;28;20813;-76
2023/09/30 05:15:44;;;;;;;16.83;7.70;;;;;;;;;;5074903;28;20459;-76
2023/09/30 05:18:11;;;;;;;18.80;7.20;;;;;;;;;;5080355;28;20451;-76
2023/09/30 05:20:38;;;;;;;12.87;7.03;;;;;;;;;;5072028;28;20472;-76
2023/09/30 05:23:06;;;;;;;15.93;7.97;;;;;;;;;;5059329;28;20493;-76
2023/09/30 05:25:36;;;;;;;20.90;7.87;;;;;;;;;;5083505;28;20527;-76
2023/09/30 05:28:04;;;;;;;17.47;9.30;;;;;;;;;;5076843;28;20492;-76
2023/09/30 05:30:33;;;;;;;13.30;8.20;;;;;;;;;;5059318;28;20475;-76
2023/09/30 05:33:00;;;;;;;15.37;7.40;;;;;;;;;;5072059;28;20504;-76
2023/09/30 05:35:28;;;;;;;23.30;8.53;;;;;;;;;;5086704;28;20467;-77
2023/09/30 05:37:55;;;;;;;17.23;7.47;;;;;;;;;;5072983;28;20591;-76
2023/09/30 05:40:24;;;;;;;18.33;7.90;;;;;;;;;;5080211;28;20486;-77
2023/09/30 05:42:54;;;;;;;16.50;7.40;;;;;;;;;;5081711;28;20477;-77
2023/09/30 05:45:23;;;;;;;19.63;8.00;;;;;;;;;;5077725;28;20903;-77
2023/09/30 05:47:52;;;;;;;13.47;7.03;;;;;;;;;;5081580;28;20489;-77
2023/09/30 05:50:23;;;;;;;16.07;6.30;;;;;;;;;;5078959;28;20471;-77
2023/09/30 05:52:51;;;;;;;17.27;6.90;;;;;;;;;;5067274;28;20455;-77
2023/09/30 05:55:20;;;;;;;19.97;8.73;;;;;;;;;;5075167;28;20459;-77
2023/09/30 05:57:47;;;;;;;21.40;9.30;;;;;;;;;;5084941;28;20456;-76
2023/09/30 06:00:20;;;;;;;18.60;8.00;;;;;;;;;;5090275;28;20966;-77
2023/09/30 06:02:47;;;;;;;14.90;6.40;;;;;;;;;;5083268;28;20487;-77
2023/09/30 06:05:16;;;;;;;19.10;7.63;;;;;;;;;;5083411;28;20451;-77
2023/09/30 06:07:45;;;;;;;17.00;6.83;;;;;;;;;;5083771;28;20495;-77
2023/09/30 06:10:12;;;;;;;16.10;8.17;;;;;;;;;;5086580;28;20478;-76
2023/09/30 06:12:41;;;;;;;16.83;6.60;;;;;;;;;;5087154;28;20454;-76
2023/09/30 06:15:10;;;;;;;17.90;6.87;;;;;;;;;;5091274;28;20538;-76
2023/09/30 06:17:38;;;;;;;17.63;7.57;;;;;;;;;;5066947;28;20456;-76
2023/09/30 06:20:09;;;;;;;19.87;8.50;;;;;;;;;;5058503;28;20982;-76
2023/09/30 06:22:36;;;;;;;21.50;8.47;;;;;;;;;;5091279;28;20455;-76
2023/09/30 06:25:04;;;;;;;18.00;7.50;;;;;;;;;;5086598;28;20447;-76
2023/09/30 06:27:31;;;;;;;16.33;7.73;;;;;;;;;;5086324;28;20559;-76
2023/09/30 06:29:58;;;;;;;13.93;7.00;;;;;;;;;;5086448;28;20459;-76
2023/09/30 06:32:26;;;;;;;17.13;7.77;;;;;;;;;;5086136;28;20451;-76
2023/09/30 06:34:54;;;;;;;16.60;8.20;;;;;;;;;;5084505;28;20463;-76
2023/09/30 06:37:21;;;;;;;15.20;7.10;;;;;;;;;;5080367;28;20930;-76
2023/09/30 06:42:17;;;;;;;15.97;7.40;;;;;;;;;;5095755;28;20600;-80
2023/09/30 06:44:44;;;;;;;14.10;7.73;;;;;;;;;;5097135;28;20431;-79
2023/09/30 06:47:12;;;;;;;16.37;7.33;;;;;;;;;;5097666;28;20459;-80
2023/09/30 06:49:39;;;;;;;15.37;7.83;;;;;;;;;;5097497;28;20875;-80
2023/09/30 06:52:08;;;;;;;19.07;8.90;;;;;;;;;;5097605;28;20512;-80
2023/09/30 06:54:35;;;;;;;18.33;7.23;;;;;;;;;;5097208;28;20451;-79
2023/09/30 06:57:02;;;;;;;18.90;8.93;;;;;;;;;;5097643;28;20454;-79
2023/09/30 06:59:30;;;;;;;20.87;9.60;;;;;;;;;;5096169;28;20951;-79
2023/09/30 07:01:57;;;;;;;25.50;9.40;;;;;;;;;;5095979;28;20975;-80
2023/09/30 07:04:25;;;;;;;22.33;9.10;;;;;;;;;;5095610;28;20453;-79
2023/09/30 07:06:52;;;;;;;16.70;8.47;;;;;;;;;;5095402;28;20455;-79
2023/09/30 07:09:20;;;;;;;23.13;8.40;;;;;;;;;;5095652;28;20496;-80
2023/09/30 07:11:49;;;;;;;16.97;8.03;;;;;;;;;;5095461;28;20467;-78
2023/09/30 07:14:16;;;;;;;15.40;8.43;;;;;;;;;;5095662;28;20451;-78
2023/09/30 07:16:43;;;;;;;20.07;8.17;;;;;;;;;;5095595;28;20809;-80
2023/09/30 07:19:10;;;;;;;20.37;9.30;;;;;;;;;;5095674;28;20453;-80
2023/09/30 07:21:38;;;;;;;20.37;8.53;;;;;;;;;;5095186;28;20846;-79
2023/09/30 07:24:05;;;;;;;18.23;8.53;;;;;;;;;;5095975;28;20462;-80
2023/09/30 07:26:34;;;;;;;17.93;8.43;;;;;;;;;;5095405;28;20443;-79
2023/09/30 07:29:01;;;;;;;16.63;7.97;;;;;;;;;;5094758;28;20478;-80
2023/09/30 07:31:28;;;;;;;18.10;9.70;;;;;;;;;;5094738;28;20496;-80
2023/09/30 07:33:55;;;;;;;23.63;8.60;;;;;;;;;;5095543;28;20449;-78
2023/09/30 07:36:23;;;;;;;17.70;7.80;;;;;;;;;;5095274;28;20446;-78
2023/09/30 07:38:50;;;;;;;19.20;9.33;;;;;;;;;;5094733;28;20451;-78
2023/09/30 07:41:17;;;;;;;17.40;8.13;;;;;;;;;;5094445;28;20485;-79
2023/09/30 07:43:46;;;;;;;15.03;6.50;;;;;;;;;;5095016;28;20956;-78
2023/09/30 07:46:15;;;;;;;18.03;8.30;;;;;;;;;;5094847;28;20451;-78
2023/09/30 07:48:42;;;;;;;16.93;7.60;;;;;;;;;;5094154;28;20487;-78
2023/09/30 07:51:12;;;;;;;21.97;8.00;;;;;;;;;;5094565;28;20463;-81
2023/09/30 07:53:41;;;;;;;15.20;8.57;;;;;;;;;;5095398;28;20905;-80
2023/09/30 07:56:08;;;;;;;15.63;7.57;;;;;;;;;;5094296;28;20614;-80
2023/09/30 07:58:35;;;;;;;22.73;9.87;;;;;;;;;;5094296;28;20450;-80
2023/09/30 08:01:04;;;;;;;18.80;8.67;;;;;;;;;;5094099;28;21032;-78
2023/09/30 08:03:31;;;;;;;17.00;8.73;;;;;;;;;;5094048;28;20458;-80
2023/09/30 08:05:58;;;;;;;18.57;8.73;;;;;;;;;;5094084;28;20454;-78
2023/09/30 08:08:26;;;;;;;16.30;8.80;;;;;;;;;;5094020;28;20478;-77
2023/09/30 08:10:55;;;;;;;18.50;8.57;;;;;;;;;;5093919;28;20489;-77
2023/09/30 08:13:23;;;;;;;18.47;9.60;;;;;;;;;;5093519;28;20451;-79
2023/09/30 08:15:50;;;;;;;26.10;11.30;;;;;;;;;;5094514;28;20449;-79
2023/09/30 08:18:18;;;;;;;19.93;10.00;;;;;;;;;;5094313;28;20451;-80
2023/09/30 08:20:46;;;;;;;15.20;7.70;;;;;;;;;;5094072;28;20488;-80
2023/09/30 08:23:13;;;;;;;16.83;7.87;;;;;;;;;;5094448;28;20449;-80
2023/09/30 08:25:40;;;;;;;24.23;9.40;;;;;;;;;;5094290;28;20435;-80
2023/09/30 08:28:09;;;;;;;17.57;8.80;;;;;;;;;;5093925;28;20538;-80
2023/09/30 08:30:36;;;;;;;19.00;8.93;;;;;;;;;;5095385;28;20473;-80
2023/09/30 08:33:05;;;;;;;16.77;8.23;;;;;;;;;;5095283;28;20455;-80
2023/09/30 08:35:36;;;;;;;19.30;10.40;;;;;;;;;;5095540;28;20545;-79
2023/09/30 08:38:04;;;;;;;18.83;9.60;;;;;;;;;;5094461;28;20449;-79
2023/09/30 08:40:31;;;;;;;18.37;8.03;;;;;;;;;;5093956;28;21000;-79
2023/09/30 08:42:59;;;;;;;15.37;7.97;;;;;;;;;;5093814;28;20450;-80
2023/09/30 08:45:30;;;;;;;23.30;10.40;;;;;;;;;;5094112;28;20458;-80
2023/09/30 08:48:00;;;;;;;20.50;9.53;;;;;;;;;;5093941;28;20470;-79
2023/09/30 08:50:27;;;;;;;16.33;8.50;;;;;;;;;;5093751;28;20475;-81
2023/09/30 08:52:57;;;;;;;22.43;9.50;;;;;;;;;;5093803;28;20450;-81
2023/09/30 08:55:26;;;;;;;16.10;8.43;;;;;;;;;;5093469;28;20451;-81
2023/09/30 08:57:53;;;;;;;17.33;8.97;;;;;;;;;;5093776;28;20450;-80
2023/09/30 09:00:21;;;;;;;16.97;9.73;;;;;;;;;;5093529;28;20466;-80
2023/09/30 09:02:49;;;;;;;17.50;9.37;;;;;;;;;;5094156;28;20457;-80
2023/09/30 09:05:16;;;;;;;15.03;8.40;;;;;;;;;;5095300;28;20908;-80
2023/09/30 09:07:43;;;;;;;14.93;7.93;;;;;;;;;;5093858;28;20447;-79
2023/09/30 09:10:13;;;;;;;15.23;7.40;;;;;;;;;;5093413;28;20466;-81
2023/09/30 09:12:41;;;;;;;18.13;9.50;;;;;;;;;;5094607;28;20446;-81
2023/09/30 09:15:10;;;;;;;17.87;9.30;;;;;;;;;;5097079;28;20477;-81
2023/09/30 09:17:43;;;;;;;17.33;9.07;;;;;;;;;;5095967;28;20446;-81
2023/09/30 09:20:13;;;;;;;20.97;9.87;;;;;;;;;;5094839;28;20470;-81
2023/09/30 09:22:41;;;;;;;19.50;9.70;;;;;;;;;;5094552;28;20477;-81
2023/09/30 09:25:08;;;;;;;13.70;8.27;;;;;;;;;;5095666;28;20439;-79
2023/09/30 09:27:37;;;;;;;13.80;8.00;;;;;;;;;;5098197;28;20446;-81
2023/09/30 09:30:17;;;;;;;17.67;8.30;;;;;;;;;;5097728;28;20486;-80
2023/09/30 09:32:54;;;;;;;18.50;9.57;;;;;;;;;;5098638;28;20454;-80
2023/09/30 09:35:21;;;;;;;14.60;8.40;;;;;;;;;;5098333;28;20446;-81
2023/09/30 09:37:56;;;;;;;17.87;10.00;;;;;;;;;;5098651;28;20481;-81
2023/09/30 09:40:24;;;;;;;20.93;10.37;;;;;;;;;;5098106;28;20551;-81
2023/09/30 09:42:54;;;;;;;18.87;9.40;;;;;;;;;;5098028;28;20447;-81
2023/09/30 09:45:23;;;;;;;20.37;9.67;;;;;;;;;;5098801;28;20454;-79
2023/09/30 09:47:51;;;;;;;18.10;9.73;;;;;;;;;;5098247;28;20459;-78
2023/09/30 09:50:19;;;;;;;19.30;10.20;;;;;;;;;;5097757;28;20573;-79
2023/09/30 09:52:48;;;;;;;18.07;8.67;;;;;;;;;;5097576;28;20993;-79
2023/09/30 09:55:16;;;;;;;17.17;8.60;;;;;;;;;;5098179;28;20446;-79
2023/09/30 09:57:44;;;;;;;15.27;7.73;;;;;;;;;;5097419;28;20446;-81
2023/09/30 10:00:15;;;;;;;15.73;8.03;;;;;;;;;;5097796;28;20488;-79
2023/09/30 10:02:42;;;;;;;19.27;7.80;;;;;;;;;;5097440;28;20462;-78
2023/09/30 10:05:11;;;;;;;11.77;7.53;;;;;;;;;;5097275;28;20453;-78
2023/09/30 10:07:40;;;;;;;16.03;8.43;;;;;;;;;;5097343;28;20499;-79
2023/09/30 10:10:09;;;;;;;13.60;6.77;;;;;;;;;;5097126;28;20490;-79
2023/09/30 10:12:38;;;;;;;15.00;7.30;;;;;;;;;;5097169;28;20990;-79
2023/09/30 10:15:20;;;;;;;22.53;8.53;;;;;;;;;;5097417;28;20456;-79
2023/09/30 10:18:03;;;;;;;15.63;6.97;;;;;;;;;;5096608;28;20454;-80
2023/09/30 10:20:30;;;;;;;14.27;6.33;;;;;;;;;;5098006;28;20478;-80
2023/09/30 10:23:32;;;;;;;14.30;7.73;;;;;;;;;;5097033;28;20486;-79
2023/09/30 10:26:17;;;;;;;13.77;7.33;;;;;;;;;;5054672;28;20503;-79
2023/09/30 10:28:46;;;;;;;18.23;8.77;;;;;;;;;;5093209;28;20486;-80
2023/09/30 10:31:15;;;;;;;14.80;8.70;;;;;;;;;;5095917;28;20474;-80
2023/09/30 10:34:16;;;;;;;18.10;8.90;;;;;;;;;;5095882;28;20852;-81
2023/09/30 10:36:44;;;;;;;14.03;7.30;;;;;;;;;;5052968;28;20444;-80
2023/09/30 10:39:13;;;;;;;16.93;8.50;;;;;;;;;;5053598;28;20453;-80
2023/09/30 10:41:52;;;;;;;18.00;8.20;;;;;;;;;;5072789;28;20527;-80
2023/09/30 10:44:35;;;;;;;14.30;7.87;;;;;;;;;;5096308;28;20789;-81
2023/09/30 10:47:22;;;;;;;11.47;6.60;;;;;;;;;;5096790;28;20940;-79
2023/09/30 10:49:49;;;;;;;13.67;7.10;;;;;;;;;;5096010;28;20492;-79
2023/09/30 10:52:24;;;;;;;13.53;6.93;;;;;;;;;;5096612;28;20450;-79
2023/09/30 10:54:51;;;;;;;14.23;6.63;;;;;;;;;;5096298;28;20435;-79
2023/09/30 10:57:28;;;;;;;11.30;6.60;;;;;;;;;;5096298;28;20457;-79
2023/09/30 11:00:10;;;;;;;15.80;7.50;;;;;;;;;;5096036;28;20427;-79
2023/09/30 11:02:49;;;;;;;16.70;8.77;;;;;;;;;;5096059;28;20854;-80
2023/09/30 11:05:16;;;;;;;17.17;9.10;;;;;;;;;;5096544;28;20532;-79
2023/09/30 11:07:46;;;;;;;19.83;9.40;;;;;;;;;;5095977;28;20951;-78
2023/09/30 11:10:13;;;;;;;16.80;7.67;;;;;;;;;;5096506;28;20880;-79
2023/09/30 11:12:40;;;;;;;19.30;9.00;;;;;;;;;;5096615;28;20454;-79
2023/09/30 11:15:09;;;;;;;16.20;8.40;;;;;;;;;;5096148;28;20493;-79
2023/09/30 11:17:36;;;;;;;15.43;8.10;;;;;;;;;;5095629;28;20522;-79
2023/09/30 11:20:06;;;;;;;15.37;8.40;;;;;;;;;;5095694;28;20461;-79
2023/09/30 11:22:34;;;;;;;16.47;7.70;;;;;;;;;;5095727;28;20499;-79
2023/09/30 11:25:03;;;;;;;20.63;7.80;;;;;;;;;;5095949;28;20520;-81
2023/09/30 11:27:31;;;;;;;17.17;8.53;;;;;;;;;;5095057;28;20450;-79
2023/09/30 11:29:58;;;;;;;16.87;8.10;;;;;;;;;;5095009;28;20539;-79
2023/09/30 11:32:27;;;;;;;18.77;8.77;;;;;;;;;;5096535;28;20876;-81
2023/09/30 11:34:54;;;;;;;16.63;7.33;;;;;;;;;;5096055;28;20533;-79
2023/09/30 11:37:22;;;;;;;21.50;7.93;;;;;;;;;;5095435;28;20439;-80
2023/09/30 11:39:51;;;;;;;16.87;6.80;;;;;;;;;;5096765;28;20458;-79
2023/09/30 11:42:20;;;;;;;18.60;8.43;;;;;;;;;;5095379;28;20940;-81
2023/09/30 11:44:48;;;;;;;16.40;8.13;;;;;;;;;;5095759;28;20438;-81
2023/09/30 11:47:16;;;;;;;15.73;7.80;;;;;;;;;;5095212;28;20924;-80
2023/09/30 11:49:44;;;;;;;15.73;8.27;;;;;;;;;;5095073;28;20504;-81
2023/09/30 11:52:12;;;;;;;15.80;7.93;;;;;;;;;;5095721;28;20558;-81
2023/09/30 11:54:43;;;;;;;16.97;9.10;;;;;;;;;;5096403;28;20933;-79
2023/09/30 11:57:11;;;;;;;15.70;8.10;;;;;;;;;;5095784;28;20457;-79
2023/09/30 11:59:40;;;;;;;16.57;8.53;;;;;;;;;;5094656;28;20929;-81
2023/09/30 12:02:08;;;;;;;15.97;7.73;;;;;;;;;;5095243;28;20502;-81
2023/09/30 12:04:35;;;;;;;16.93;8.60;;;;;;;;;;5095082;28;20494;-80
2023/09/30 12:07:03;;;;;;;15.83;8.10;;;;;;;;;;5095116;28;20443;-80
2023/09/30 12:09:31;;;;;;;16.83;7.97;;;;;;;;;;5095715;28;20512;-80
2023/09/30 12:11:59;;;;;;;14.00;7.93;;;;;;;;;;5095157;28;20489;-79
2023/09/30 12:14:26;;;;;;;18.97;9.03;;;;;;;;;;5094993;28;20908;-79
2023/09/30 12:16:55;;;;;;;17.00;9.37;;;;;;;;;;5095480;28;20455;-79
2023/09/30 12:19:22;;;;;;;18.50;8.70;;;;;;;;;;5094800;28;20442;-79
2023/09/30 12:21:50;;;;;;;17.00;8.63;;;;;;;;;;5094639;28;20463;-79
2023/09/30 12:24:19;;;;;;;16.80;9.30;;;;;;;;;;5094853;28;20490;-80
2023/09/30 12:26:48;;;;;;;16.43;8.80;;;;;;;;;;5095317;28;20478;-79
2023/09/30 12:29:16;;;;;;;19.27;10.40;;;;;;;;;;5095235;28;20486;-79
2023/09/30 12:31:44;;;;;;;20.27;8.90;;;;;;;;;;5095254;28;20483;-79
2023/09/30 12:34:13;;;;;;;15.63;9.77;;;;;;;;;;5094587;28;20457;-79
2023/09/30 12:36:40;;;;;;;16.60;8.47;;;;;;;;;;5094771;28;20929;-79
2023/09/30 12:39:10;;;;;;;16.53;8.93;;;;;;;;;;5095027;28;20442;-81
2023/09/30 12:41:38;;;;;;;16.00;9.00;;;;;;;;;;5093961;28;20863;-80
2023/09/30 12:44:05;;;;;;;19.20;10.07;;;;;;;;;;5094904;28;20502;-80
2023/09/30 12:46:34;;;;;;;24.27;10.07;;;;;;;;;;5094457;28;20825;-79
2023/09/30 12:49:01;;;;;;;18.03;9.63;;;;;;;;;;5094768;28;20525;-81
2023/09/30 12:51:30;;;;;;;19.90;11.33;;;;;;;;;;5094579;28;21010;-79
2023/09/30 12:53:57;;;;;;;18.53;9.80;;;;;;;;;;5094724;28;20458;-79
2023/09/30 12:56:25;;;;;;;18.00;9.50;;;;;;;;;;5094467;28;20458;-79
2023/09/30 12:58:52;;;;;;;15.07;8.97;;;;;;;;;;5094171;28;20452;-80
2023/09/30 13:01:19;;;;;;;24.57;9.00;;;;;;;;;;5093625;28;20803;-80
2023/09/30 13:03:46;;;;;;;17.40;9.30;;;;;;;;;;5094116;28;20454;-81
2023/09/30 13:06:13;;;;;;;17.37;10.40;;;;;;;;;;5094297;28;20443;-81
2023/09/30 13:08:42;;;;;;;25.13;11.73;;;;;;;;;;5093977;28;20499;-81
2023/09/30 13:11:09;;;;;;;18.73;9.60;;;;;;;;;;5094313;28;20498;-81
2023/09/30 13:13:36;;;;;;;22.07;9.67;;;;;;;;;;5093744;28;20478;-80
2023/09/30 13:16:05;;;;;;;19.33;10.20;;;;;;;;;;5093723;28;20451;-80
2023/09/30 13:18:32;;;;;;;18.03;8.63;;;;;;;;;;5093745;28;20997;-81
2023/09/30 13:20:59;;;;;;;19.93;8.97;;;;;;;;;;5093856;28;20968;-81
2023/09/30 13:23:27;;;;;;;18.43;9.47;;;;;;;;;;5093737;28;20466;-80
2023/09/30 13:25:58;;;;;;;19.13;8.90;;;;;;;;;;5095467;28;20457;-80
2023/09/30 13:28:27;;;;;;;16.37;8.80;;;;;;;;;;5094811;28;20526;-80
2023/09/30 13:30:59;;;;;;;16.20;8.17;;;;;;;;;;5094469;28;21018;-79
2023/09/30 13:33:29;;;;;;;18.37;8.97;;;;;;;;;;5094968;28;20518;-79
2023/09/30 13:35:58;;;;;;;18.93;9.20;;;;;;;;;;5094982;28;20458;-80
2023/09/30 13:38:27;;;;;;;20.63;9.73;;;;;;;;;;5095334;28;20993;-80
2023/09/30 13:40:58;;;;;;;19.00;9.43;;;;;;;;;;5093215;28;20510;-81
2023/09/30 13:43:26;;;;;;;18.93;8.60;;;;;;;;;;5081980;28;20951;-82
2023/09/30 13:45:55;;;;;;;18.80;9.97;;;;;;;;;;5087187;28;20546;-82
2023/09/30 13:48:24;;;;;;;20.70;9.43;;;;;;;;;;5090261;28;20448;-83
2023/09/30 13:50:52;;;;;;;20.90;9.53;;;;;;;;;;5083694;28;20927;-82
2023/09/30 13:53:21;;;;;;;19.93;9.13;;;;;;;;;;5083858;28;20528;-83
2023/09/30 13:55:50;;;;;;;15.90;7.97;;;;;;;;;;5092498;28;20501;-80
2023/09/30 13:58:20;;;;;;;15.60;8.10;;;;;;;;;;5083441;28;20468;-82
2023/09/30 14:00:49;;;;;;;16.60;7.57;;;;;;;;;;5091789;28;20471;-82
2023/09/30 14:03:21;;;;;;;16.37;7.53;;;;;;;;;;5089240;28;20530;-81
2023/09/30 14:05:53;;;;;;;12.50;6.30;;;;;;;;;;5087231;28;20525;-81
2023/09/30 14:08:21;;;;;;;13.27;7.10;;;;;;;;;;5096017;28;20465;-82
2023/09/30 14:10:48;;;;;;;15.17;5.97;;;;;;;;;;5087428;28;20499;-82
2023/09/30 14:13:16;;;;;;;12.70;6.93;;;;;;;;;;5099018;28;20858;-82
2023/09/30 14:15:50;;;;;;;14.43;6.00;;;;;;;;;;5099761;28;20452;-82
2023/09/30 14:18:19;;;;;;;12.33;6.53;;;;;;;;;;5100256;28;20457;-82
2023/09/30 14:20:48;;;;;;;13.70;6.47;;;;;;;;;;5090835;28;20476;-81
2023/09/30 14:23:19;;;;;;;12.57;5.77;;;;;;;;;;5085034;28;20464;-79
2023/09/30 14:25:56;;;;;;;9.50;6.37;;;;;;;;;;5077648;28;20429;-79
2023/09/30 14:28:24;;;;;;;13.97;6.50;;;;;;;;;;5077472;28;20800;-79
2023/09/30 14:31:00;;;;;;;15.33;6.20;;;;;;;;;;5077081;28;20506;-79
2023/09/30 14:33:28;;;;;;;13.97;6.27;;;;;;;;;;5077777;28;20460;-79
2023/09/30 14:35:59;;;;;;;14.37;6.87;;;;;;;;;;5077221;28;20964;-79
2023/09/30 14:38:29;;;;;;;12.60;5.20;;;;;;;;;;5077352;28;20464;-81